PWSweather.com
Personal Weather Stations
Station Observations
IONTARIO88
Lincoln, ON L0R

Lincoln, ON L0R

Lat: 43.1763563, Lon: -79.4719525

Elevation: 297

Station Type: Davis Vantage Pro 2 Plus

http://www.beamsvillewx.ca

Latest ConditionsUpdated 9:45:00 PM EDT Wednesday, Sep 19, 2018
Currently Today's Max Today's Min Today's Average
Temperature 61.5°F16.4°C 73.0°F22.8°C 61.5°F16.4°C 66.2°F19.0°C
Dew Point 55.3°F12.9°C 59.8°F15.4°C 55.3°F12.9°C 58.0°F14.4°C
Winds Calm Calm 6.0 mph -9.7 kmh - - 2.5 mph 4.0 kmh
Wind Gusts -- 13.0 mph20.9 kmh - -
Humidity 80% 84% 57% 75%
Pressure 30.09 in1019.0 mb 30.09 in1019.0 mb 29.90 in1012.5 mb -
Hour Temp Dew Point Humidity Winds Wind Gusts Pressure Precip Precip Rate Daily Precip Total
09:45 PM 61.5°F16.4°C 55.3°F12.9°C 80% Calm Calm -- 30.09 in1019.0 mb 0.00 in0.0 mm 0.00 in0.0 mm 0.00 in0.0 mm
09:30 PM 62.2°F16.8°C 56.0°F13.3°C 80% Calm Calm -- 30.08 in1018.6 mb 0.00 in0.0 mm 0.00 in0.0 mm 0.00 in0.0 mm
09:15 PM 62.4°F16.9°C 55.8°F13.2°C 79% Calm Calm -- 30.08 in1018.6 mb 0.00 in0.0 mm 0.00 in0.0 mm 0.00 in0.0 mm
09:00 PM 63.0°F17.2°C 56.3°F13.5°C 79% Calm Calm -- 30.07 in1018.3 mb 0.00 in0.0 mm 0.00 in0.0 mm 0.00 in0.0 mm
08:45 PM 63.3°F17.4°C 56.0°F13.3°C 77% Calm Calm -- 30.07 in1018.3 mb 0.00 in0.0 mm 0.00 in0.0 mm 0.00 in0.0 mm
08:30 PM 63.7°F17.6°C 56.3°F13.5°C 77% Calm Calm -- 30.07 in1018.3 mb 0.00 in0.0 mm 0.00 in0.0 mm 0.00 in0.0 mm
08:15 PM 64.2°F17.9°C 56.1°F13.4°C 75% Calm Calm -- 30.07 in1018.3 mb 0.00 in0.0 mm 0.00 in0.0 mm 0.00 in0.0 mm
08:00 PM 64.9°F18.3°C 56.5°F13.6°C 74% Calm Calm -- 30.07 in1018.3 mb 0.00 in0.0 mm 0.00 in0.0 mm 0.00 in0.0 mm
07:45 PM 65.8°F18.8°C 56.9°F13.8°C 73% Calm Calm -- 30.06 in1017.9 mb 0.00 in0.0 mm 0.00 in0.0 mm 0.00 in0.0 mm
07:30 PM 66.7°F19.3°C 57.0°F13.9°C 71% Calm Calm -- 30.06 in1017.9 mb 0.00 in0.0 mm 0.00 in0.0 mm 0.00 in0.0 mm
07:15 PM 67.6°F19.8°C 57.5°F14.2°C 70% Calm Calm -- 30.05 in1017.6 mb 0.00 in0.0 mm 0.00 in0.0 mm 0.00 in0.0 mm
07:00 PM 68.4°F20.2°C 57.4°F14.1°C 68% Calm Calm 1.0 mph1.6 kmh 30.05 in1017.6 mb 0.00 in0.0 mm 0.00 in0.0 mm 0.00 in0.0 mm
06:45 PM 69.4°F20.8°C 57.6°F14.2°C 66% Calm Calm 3.0 mph4.8 kmh 30.05 in1017.6 mb 0.00 in0.0 mm 0.00 in0.0 mm 0.00 in0.0 mm
06:30 PM 70.3°F21.3°C 57.6°F14.2°C 64% Calm Calm 1.0 mph1.6 kmh 30.05 in1017.6 mb 0.00 in0.0 mm 0.00 in0.0 mm 0.00 in0.0 mm
06:15 PM 71.4°F21.9°C 57.7°F14.3°C 62% Calm Calm 3.0 mph4.8 kmh 30.04 in1017.3 mb 0.00 in0.0 mm 0.00 in0.0 mm 0.00 in0.0 mm
06:00 PM 72.0°F22.2°C 58.2°F14.6°C 62% Calm Calm 2.0 mph3.2 kmh 30.04 in1017.3 mb 0.00 in0.0 mm 0.00 in0.0 mm 0.00 in0.0 mm
05:45 PM 72.0°F22.2°C 57.8°F14.3°C 61% Calm Calm 4.0 mph6.4 kmh 30.04 in1017.3 mb 0.00 in0.0 mm 0.00 in0.0 mm 0.00 in0.0 mm
05:30 PM 72.1°F22.3°C 57.5°F14.2°C 60% Calm Calm 3.0 mph4.8 kmh 30.03 in1016.9 mb 0.00 in0.0 mm 0.00 in0.0 mm 0.00 in0.0 mm
05:15 PM 73.0°F22.8°C 58.3°F14.6°C 60% Calm Calm 2.0 mph3.2 kmh 30.03 in1016.9 mb 0.00 in0.0 mm 0.00 in0.0 mm 0.00 in0.0 mm
05:00 PM 73.0°F22.8°C 56.9°F13.8°C 57% Calm Calm 4.0 mph6.4 kmh 30.03 in1016.9 mb 0.00 in0.0 mm 0.00 in0.0 mm 0.00 in0.0 mm
04:45 PM 73.0°F22.8°C 57.4°F14.1°C 58% 1.0 mph NNE1.6 kmh NNE 5.0 mph8.0 kmh 30.03 in1016.9 mb 0.00 in0.0 mm 0.00 in0.0 mm 0.00 in0.0 mm
04:30 PM 72.9°F22.7°C 56.7°F13.7°C 57% Calm Calm 4.0 mph6.4 kmh 30.03 in1016.9 mb 0.00 in0.0 mm 0.00 in0.0 mm 0.00 in0.0 mm
04:15 PM 72.0°F22.2°C 56.4°F13.6°C 58% 1.0 mph NNE1.6 kmh NNE 4.0 mph6.4 kmh 30.04 in1017.3 mb 0.00 in0.0 mm 0.00 in0.0 mm 0.00 in0.0 mm
04:00 PM 71.1°F21.7°C 55.5°F13.1°C 58% 2.0 mph NNE3.2 kmh NNE 7.0 mph11.3 kmh 30.04 in1017.3 mb 0.00 in0.0 mm 0.00 in0.0 mm 0.00 in0.0 mm
03:45 PM 70.5°F21.4°C 57.3°F14.1°C 63% 2.0 mph NNE3.2 kmh NNE 6.0 mph9.7 kmh 30.03 in1016.9 mb 0.00 in0.0 mm 0.00 in0.0 mm 0.00 in0.0 mm
03:30 PM 69.4°F20.8°C 57.6°F14.2°C 66% 2.0 mph NNE3.2 kmh NNE 7.0 mph11.3 kmh 30.04 in1017.3 mb 0.00 in0.0 mm 0.00 in0.0 mm 0.00 in0.0 mm
03:15 PM 70.7°F21.5°C 56.6°F13.7°C 61% 2.0 mph NNE3.2 kmh NNE 6.0 mph9.7 kmh 30.03 in1016.9 mb 0.00 in0.0 mm 0.00 in0.0 mm 0.00 in0.0 mm
03:00 PM 69.4°F20.8°C 57.2°F14.0°C 65% 1.0 mph NNE1.6 kmh NNE 7.0 mph11.3 kmh 30.04 in1017.3 mb 0.00 in0.0 mm 0.00 in0.0 mm 0.00 in0.0 mm
02:45 PM 69.6°F20.9°C 57.8°F14.3°C 66% 2.0 mph NNE3.2 kmh NNE 8.0 mph12.9 kmh 30.04 in1017.3 mb 0.00 in0.0 mm 0.00 in0.0 mm 0.00 in0.0 mm
02:30 PM 69.4°F20.8°C 58.0°F14.4°C 67% 2.0 mph NNE3.2 kmh NNE 9.0 mph14.5 kmh 30.04 in1017.3 mb 0.00 in0.0 mm 0.00 in0.0 mm 0.00 in0.0 mm
02:15 PM 69.6°F20.9°C 58.2°F14.6°C 67% 2.0 mph NNE3.2 kmh NNE 9.0 mph14.5 kmh 30.05 in1017.6 mb 0.00 in0.0 mm 0.00 in0.0 mm 0.00 in0.0 mm
02:00 PM 69.3°F20.7°C 58.2°F14.6°C 68% 3.0 mph NNE4.8 kmh NNE 6.0 mph9.7 kmh 30.05 in1017.6 mb 0.00 in0.0 mm 0.00 in0.0 mm 0.00 in0.0 mm
01:45 PM 69.6°F20.9°C 59.4°F15.2°C 70% 4.0 mph N6.4 kmh N 7.0 mph11.3 kmh 30.05 in1017.6 mb 0.00 in0.0 mm 0.00 in0.0 mm 0.00 in0.0 mm
01:30 PM 68.7°F20.4°C 59.7°F15.4°C 73% 3.0 mph N4.8 kmh N 7.0 mph11.3 kmh 30.05 in1017.6 mb 0.00 in0.0 mm 0.00 in0.0 mm 0.00 in0.0 mm
01:15 PM 68.2°F20.1°C 58.8°F14.9°C 72% 3.0 mph N4.8 kmh N 6.0 mph9.7 kmh 30.05 in1017.6 mb 0.00 in0.0 mm 0.00 in0.0 mm 0.00 in0.0 mm
01:00 PM 66.9°F19.4°C 58.0°F14.4°C 73% 2.0 mph N3.2 kmh N 7.0 mph11.3 kmh 30.05 in1017.6 mb 0.00 in0.0 mm 0.00 in0.0 mm 0.00 in0.0 mm
12:45 PM 66.6°F19.2°C 57.3°F14.1°C 72% 3.0 mph NNW4.8 kmh NNW 7.0 mph11.3 kmh 30.06 in1017.9 mb 0.00 in0.0 mm 0.00 in0.0 mm 0.00 in0.0 mm
12:30 PM 65.8°F18.8°C 57.7°F14.3°C 75% 2.0 mph N3.2 kmh N 8.0 mph12.9 kmh 30.04 in1017.3 mb 0.00 in0.0 mm 0.00 in0.0 mm 0.00 in0.0 mm
12:15 PM 66.0°F18.9°C 57.5°F14.2°C 74% 1.0 mph NNE1.6 kmh NNE 9.0 mph14.5 kmh 30.03 in1016.9 mb 0.00 in0.0 mm 0.00 in0.0 mm 0.00 in0.0 mm
12:00 PM 66.2°F19.0°C 57.3°F14.1°C 73% 4.0 mph NNE6.4 kmh NNE 8.0 mph12.9 kmh 30.03 in1016.9 mb 0.00 in0.0 mm 0.00 in0.0 mm 0.00 in0.0 mm
11:45 AM 66.6°F19.2°C 58.0°F14.4°C 74% 4.0 mph NNE6.4 kmh NNE 8.0 mph12.9 kmh 30.04 in1017.3 mb 0.00 in0.0 mm 0.00 in0.0 mm 0.00 in0.0 mm
11:30 AM 66.2°F19.0°C 57.3°F14.1°C 73% 3.0 mph N4.8 kmh N 8.0 mph12.9 kmh 30.04 in1017.3 mb 0.00 in0.0 mm 0.00 in0.0 mm 0.00 in0.0 mm
11:15 AM 66.6°F19.2°C 57.3°F14.1°C 72% 4.0 mph N6.4 kmh N 8.0 mph12.9 kmh 30.04 in1017.3 mb 0.00 in0.0 mm 0.00 in0.0 mm 0.00 in0.0 mm
11:00 AM 65.7°F18.7°C 57.5°F14.2°C 75% 5.0 mph N8.0 kmh N 11.0 mph17.7 kmh 30.04 in1017.3 mb 0.00 in0.0 mm 0.00 in0.0 mm 0.00 in0.0 mm
10:45 AM 65.8°F18.8°C 56.6°F13.7°C 72% 4.0 mph N6.4 kmh N 8.0 mph12.9 kmh 30.04 in1017.3 mb 0.00 in0.0 mm 0.00 in0.0 mm 0.00 in0.0 mm
10:30 AM 65.8°F18.8°C 56.9°F13.8°C 73% 4.0 mph N6.4 kmh N 10.0 mph16.1 kmh 30.04 in1017.3 mb 0.00 in0.0 mm 0.00 in0.0 mm 0.00 in0.0 mm
10:15 AM 65.5°F18.6°C 57.3°F14.1°C 75% 3.0 mph NNE4.8 kmh NNE 8.0 mph12.9 kmh 30.03 in1016.9 mb 0.00 in0.0 mm 0.00 in0.0 mm 0.00 in0.0 mm
10:00 AM 65.1°F18.4°C 57.0°F13.9°C 75% 5.0 mph NNE8.0 kmh NNE 11.0 mph17.7 kmh 30.02 in1016.6 mb 0.00 in0.0 mm 0.00 in0.0 mm 0.00 in0.0 mm
09:45 AM 64.8°F18.2°C 57.0°F13.9°C 76% 6.0 mph NNE9.7 kmh NNE 12.0 mph19.3 kmh 30.02 in1016.6 mb 0.00 in0.0 mm 0.00 in0.0 mm 0.00 in0.0 mm
09:30 AM 64.9°F18.3°C 57.9°F14.4°C 78% 5.0 mph NNE8.0 kmh NNE 10.0 mph16.1 kmh 30.02 in1016.6 mb 0.00 in0.0 mm 0.00 in0.0 mm 0.00 in0.0 mm
09:15 AM 64.9°F18.3°C 57.9°F14.4°C 78% 5.0 mph NE8.0 kmh NE 11.0 mph17.7 kmh 30.02 in1016.6 mb 0.00 in0.0 mm 0.00 in0.0 mm 0.00 in0.0 mm
09:00 AM 64.8°F18.2°C 58.1°F14.5°C 79% 5.0 mph NNE8.0 kmh NNE 10.0 mph16.1 kmh 30.02 in1016.6 mb 0.00 in0.0 mm 0.00 in0.0 mm 0.00 in0.0 mm
08:45 AM 64.8°F18.2°C 58.4°F14.7°C 80% 5.0 mph NNE8.0 kmh NNE 12.0 mph19.3 kmh 30.01 in1016.3 mb 0.00 in0.0 mm 0.00 in0.0 mm 0.00 in0.0 mm
08:30 AM 64.4°F18.0°C 58.8°F14.9°C 82% 5.0 mph NNE8.0 kmh NNE 9.0 mph14.5 kmh 30.01 in1016.3 mb 0.00 in0.0 mm 0.00 in0.0 mm 0.00 in0.0 mm
08:15 AM 64.2°F17.9°C 58.9°F14.9°C 83% 4.0 mph NNE6.4 kmh NNE 9.0 mph14.5 kmh 30.00 in1015.9 mb 0.00 in0.0 mm 0.00 in0.0 mm 0.00 in0.0 mm
08:00 AM 64.2°F17.9°C 58.9°F14.9°C 83% 4.0 mph NNE6.4 kmh NNE 13.0 mph20.9 kmh 30.00 in1015.9 mb 0.00 in0.0 mm 0.00 in0.0 mm 0.00 in0.0 mm
07:45 AM 64.4°F18.0°C 59.1°F15.1°C 83% 5.0 mph NNE8.0 kmh NNE 12.0 mph19.3 kmh 29.99 in1015.6 mb 0.00 in0.0 mm 0.00 in0.0 mm 0.00 in0.0 mm
07:30 AM 64.6°F18.1°C 59.3°F15.2°C 83% 4.0 mph N6.4 kmh N 8.0 mph12.9 kmh 29.99 in1015.6 mb 0.00 in0.0 mm 0.00 in0.0 mm 0.00 in0.0 mm
07:15 AM 64.6°F18.1°C 59.3°F15.2°C 83% 4.0 mph N6.4 kmh N 9.0 mph14.5 kmh 29.98 in1015.2 mb 0.00 in0.0 mm 0.00 in0.0 mm 0.00 in0.0 mm
07:00 AM 64.8°F18.2°C 59.5°F15.3°C 83% 3.0 mph N4.8 kmh N 9.0 mph14.5 kmh 29.97 in1014.9 mb 0.00 in0.0 mm 0.00 in0.0 mm 0.00 in0.0 mm
06:45 AM 64.8°F18.2°C 59.5°F15.3°C 83% 4.0 mph N6.4 kmh N 9.0 mph14.5 kmh 29.96 in1014.6 mb 0.00 in0.0 mm 0.00 in0.0 mm 0.00 in0.0 mm
06:30 AM 64.9°F18.3°C 59.7°F15.4°C 83% 3.0 mph NNE4.8 kmh NNE 7.0 mph11.3 kmh 29.96 in1014.6 mb 0.00 in0.0 mm 0.00 in0.0 mm 0.00 in0.0 mm
06:15 AM 64.9°F18.3°C 59.7°F15.4°C 83% 4.0 mph NNE6.4 kmh NNE 9.0 mph14.5 kmh 29.95 in1014.2 mb 0.00 in0.0 mm 0.00 in0.0 mm 0.00 in0.0 mm
06:00 AM 64.8°F18.2°C 59.8°F15.4°C 84% 3.0 mph N4.8 kmh N 9.0 mph14.5 kmh 29.94 in1013.9 mb 0.00 in0.0 mm 0.00 in0.0 mm 0.00 in0.0 mm
05:45 AM 64.6°F18.1°C 59.6°F15.3°C 84% 3.0 mph N4.8 kmh N 6.0 mph9.7 kmh 29.94 in1013.9 mb 0.00 in0.0 mm 0.00 in0.0 mm 0.00 in0.0 mm
05:30 AM 64.6°F18.1°C 59.6°F15.3°C 84% 2.0 mph NNW3.2 kmh NNW 8.0 mph12.9 kmh 29.93 in1013.5 mb 0.00 in0.0 mm 0.00 in0.0 mm 0.00 in0.0 mm
05:15 AM 64.4°F18.0°C 59.1°F15.1°C 83% 2.0 mph NNW3.2 kmh NNW 6.0 mph9.7 kmh 29.93 in1013.5 mb 0.00 in0.0 mm 0.00 in0.0 mm 0.00 in0.0 mm
05:00 AM 64.6°F18.1°C 59.3°F15.2°C 83% 3.0 mph NNW4.8 kmh NNW 8.0 mph12.9 kmh 29.92 in1013.2 mb 0.00 in0.0 mm 0.00 in0.0 mm 0.00 in0.0 mm
04:45 AM 64.2°F17.9°C 58.9°F14.9°C 83% 3.0 mph N4.8 kmh N 9.0 mph14.5 kmh 29.92 in1013.2 mb 0.00 in0.0 mm 0.00 in0.0 mm 0.00 in0.0 mm
04:30 AM 64.2°F17.9°C 58.9°F14.9°C 83% 4.0 mph N6.4 kmh N 7.0 mph11.3 kmh 29.92 in1013.2 mb 0.00 in0.0 mm 0.00 in0.0 mm 0.00 in0.0 mm
04:15 AM 64.2°F17.9°C 58.9°F14.9°C 83% 4.0 mph N6.4 kmh N 9.0 mph14.5 kmh 29.91 in1012.9 mb 0.00 in0.0 mm 0.00 in0.0 mm 0.00 in0.0 mm
04:00 AM 64.0°F17.8°C 58.8°F14.9°C 83% 2.0 mph N3.2 kmh N 6.0 mph9.7 kmh 29.91 in1012.9 mb 0.00 in0.0 mm 0.00 in0.0 mm 0.00 in0.0 mm
03:45 AM 64.2°F17.9°C 58.9°F14.9°C 83% 2.0 mph N3.2 kmh N 6.0 mph9.7 kmh 29.91 in1012.9 mb 0.00 in0.0 mm 0.00 in0.0 mm 0.00 in0.0 mm
03:30 AM 64.0°F17.8°C 58.8°F14.9°C 83% 3.0 mph N4.8 kmh N 10.0 mph16.1 kmh 29.91 in1012.9 mb 0.00 in0.0 mm 0.00 in0.0 mm 0.00 in0.0 mm
03:15 AM 64.0°F17.8°C 58.8°F14.9°C 83% 3.0 mph N4.8 kmh N 7.0 mph11.3 kmh 29.91 in1012.9 mb 0.00 in0.0 mm 0.00 in0.0 mm 0.00 in0.0 mm
03:00 AM 63.9°F17.7°C 58.6°F14.8°C 83% 4.0 mph NNW6.4 kmh NNW 8.0 mph12.9 kmh 29.91 in1012.9 mb 0.00 in0.0 mm 0.00 in0.0 mm 0.00 in0.0 mm
02:45 AM 63.7°F17.6°C 58.8°F14.9°C 84% 3.0 mph NNW4.8 kmh NNW 7.0 mph11.3 kmh 29.91 in1012.9 mb 0.00 in0.0 mm 0.00 in0.0 mm 0.00 in0.0 mm
02:30 AM 63.7°F17.6°C 58.4°F14.7°C 83% 3.0 mph NNW4.8 kmh NNW 8.0 mph12.9 kmh 29.90 in1012.5 mb 0.00 in0.0 mm 0.00 in0.0 mm 0.00 in0.0 mm
02:15 AM 63.7°F17.6°C 58.4°F14.7°C 83% 3.0 mph NNW4.8 kmh NNW 6.0 mph9.7 kmh 29.91 in1012.9 mb 0.00 in0.0 mm 0.00 in0.0 mm 0.00 in0.0 mm
02:00 AM 63.7°F17.6°C 58.4°F14.7°C 83% 3.0 mph N4.8 kmh N 9.0 mph14.5 kmh 29.91 in1012.9 mb 0.00 in0.0 mm 0.00 in0.0 mm 0.00 in0.0 mm
01:45 AM 63.5°F17.5°C 58.2°F14.6°C 83% 3.0 mph NNW4.8 kmh NNW 8.0 mph12.9 kmh 29.91 in1012.9 mb 0.00 in0.0 mm 0.00 in0.0 mm 0.00 in0.0 mm
01:30 AM 63.7°F17.6°C 58.1°F14.5°C 82% 5.0 mph NNW8.0 kmh NNW 10.0 mph16.1 kmh 29.91 in1012.9 mb 0.00 in0.0 mm 0.00 in0.0 mm 0.00 in0.0 mm
01:15 AM 63.7°F17.6°C 58.4°F14.7°C 83% 4.0 mph N6.4 kmh N 9.0 mph14.5 kmh 29.91 in1012.9 mb 0.00 in0.0 mm 0.00 in0.0 mm 0.00 in0.0 mm
01:00 AM 63.7°F17.6°C 58.4°F14.7°C 83% 4.0 mph NNW6.4 kmh NNW 9.0 mph14.5 kmh 29.91 in1012.9 mb 0.00 in0.0 mm 0.00 in0.0 mm 0.00 in0.0 mm
12:45 AM 63.7°F17.6°C 58.8°F14.9°C 84% 4.0 mph NNW6.4 kmh NNW 8.0 mph12.9 kmh 29.91 in1012.9 mb 0.00 in0.0 mm 0.00 in0.0 mm 0.00 in0.0 mm
12:30 AM 63.9°F17.7°C 58.6°F14.8°C 83% 4.0 mph NNW6.4 kmh NNW 9.0 mph14.5 kmh 29.90 in1012.5 mb 0.00 in0.0 mm 0.00 in0.0 mm 0.00 in0.0 mm
12:15 AM 64.0°F17.8°C 58.8°F14.9°C 83% 5.0 mph N8.0 kmh N 9.0 mph14.5 kmh 29.91 in1012.9 mb 0.00 in0.0 mm 0.00 in0.0 mm 0.00 in0.0 mm
12:00 AM 64.0°F17.8°C 58.8°F14.9°C 83% 5.0 mph N8.0 kmh N 10.0 mph16.1 kmh 29.91 in1012.9 mb 0.00 in0.0 mm 0.00 in0.0 mm 0.00 in0.0 mm